Time;durP1;ratioP1;P1;durP2;ratioP2;P2;SDS_P1;SDS_P2;PMS_P1;PMS_P2;Temp;Humidity;BMP_temperature;BMP_pressure;BME280_temperature;BME280_humidity;BME280_pressure;Samples;Min_cycle;Max_cycle;Signal;HPM_P1;HPM_P2
2021/10/15 00:00:38;;;;;;;8.93;5.43;;;;;;;7.45;78.65;100342.84;1087879;39;20862;-76
2021/10/15 00:01:42;;;;;;;8.82;5.90;;;;;;;7.45;78.79;100334.84;1087500;54;20015;-77
2021/10/15 00:02:44;;;;;;;8.93;5.97;;;;;;;7.46;79.00;100336.56;1087497;54;20026;-76
2021/10/15 00:03:48;;;;;;;7.90;5.47;;;;;;;7.53;78.73;100340.44;1088176;39;20542;-76
2021/10/15 00:04:52;;;;;;;9.23;5.45;;;;;;;7.61;78.34;100346.00;1088573;46;20058;-76
2021/10/15 00:05:56;;;;;;;8.35;5.30;;;;;;;7.64;78.33;100340.44;1087534;54;20034;-75
2021/10/15 00:06:58;;;;;;;8.48;5.70;;;;;;;7.61;78.36;100338.00;1087667;54;20019;-75
2021/10/15 00:08:02;;;;;;;9.60;6.05;;;;;;;7.58;78.41;100340.91;1087659;54;20038;-75
2021/10/15 00:09:03;;;;;;;9.40;5.72;;;;;;;7.58;78.26;100338.25;1087570;54;20042;-75
2021/10/15 00:10:10;;;;;;;9.80;5.70;;;;;;;7.54;78.54;100347.44;1087625;54;20694;-75
2021/10/15 00:11:12;;;;;;;9.18;6.35;;;;;;;7.52;78.69;100336.06;1087608;54;20046;-76
2021/10/15 00:12:17;;;;;;;8.35;5.70;;;;;;;7.56;78.57;100337.50;1087529;54;20767;-76
2021/10/15 00:13:18;;;;;;;9.50;6.28;;;;;;;7.53;78.33;100332.44;1087629;54;20062;-75
2021/10/15 00:14:23;;;;;;;11.23;7.07;;;;;;;7.50;78.60;100343.31;1087671;54;20776;-75
2021/10/15 00:15:24;;;;;;;9.10;6.55;;;;;;;7.46;78.69;100336.56;1087578;54;20041;-76
2021/10/15 00:16:28;;;;;;;10.40;6.38;;;;;;;7.46;78.58;100336.56;1087662;54;20034;-75
2021/10/15 00:17:30;;;;;;;10.30;6.28;;;;;;;7.45;78.77;100335.69;1087583;54;20030;-75
2021/10/15 00:18:34;;;;;;;9.70;6.20;;;;;;;7.48;78.66;100335.47;1087644;54;20034;-76
2021/10/15 00:19:36;;;;;;;9.05;6.13;;;;;;;7.51;78.66;100339.69;1087703;54;20039;-76
2021/10/15 00:20:43;;;;;;;10.35;6.85;;;;;;;7.49;78.68;100328.31;1087599;54;20906;-75
2021/10/15 00:21:44;;;;;;;9.30;6.20;;;;;;;7.48;78.75;100334.59;1087634;54;20065;-76
2021/10/15 00:22:48;;;;;;;12.73;7.30;;;;;;;7.45;78.66;100326.88;1087663;54;20034;-76
2021/10/15 00:23:50;;;;;;;10.27;6.75;;;;;;;7.47;78.51;100335.56;1087661;54;20034;-76
2021/10/15 00:24:55;;;;;;;10.77;6.40;;;;;;;7.46;78.71;100337.38;1087635;54;20061;-75
2021/10/15 00:25:57;;;;;;;8.35;5.88;;;;;;;7.48;78.64;100337.25;1087521;54;20035;-76
2021/10/15 00:27:02;;;;;;;9.70;5.82;;;;;;;7.57;78.49;100327.72;1087535;54;20018;-76
2021/10/15 00:28:04;;;;;;;10.13;6.60;;;;;;;7.54;78.11;100328.81;1087602;54;20034;-76
2021/10/15 00:29:09;;;;;;;10.52;6.40;;;;;;;7.51;78.43;100336.19;1087689;54;20054;-76
2021/10/15 00:30:10;;;;;;;11.20;6.38;;;;;;;7.48;78.36;100331.94;1087664;54;20031;-75
2021/10/15 00:31:15;;;;;;;9.00;5.53;;;;;;;7.53;78.41;100329.78;1087598;54;20026;-75
2021/10/15 00:32:16;;;;;;;8.80;5.55;;;;;;;7.61;77.84;100324.72;1088024;47;20777;-75
2021/10/15 00:33:20;;;;;;;7.35;5.43;;;;;;;7.60;77.91;100327.50;1087676;54;20037;-75
2021/10/15 00:34:23;;;;;;;9.85;5.45;;;;;;;7.69;77.89;100323.25;1087623;54;20078;-76
2021/10/15 00:35:27;;;;;;;8.65;5.65;;;;;;;7.73;77.49;100330.06;1087570;54;20030;-75
2021/10/15 00:36:32;;;;;;;8.32;5.40;;;;;;;7.79;77.42;100321.56;1087626;54;20034;-75
2021/10/15 00:37:36;;;;;;;7.57;4.93;;;;;;;7.84;77.22;100318.56;1087450;54;20042;-76
2021/10/15 00:38:38;;;;;;;8.13;5.55;;;;;;;7.80;77.14;100325.94;1087819;54;20038;-75
2021/10/15 00:39:42;;;;;;;11.55;5.70;;;;;;;7.75;77.42;100325.44;1087884;54;20031;-75
2021/10/15 00:40:44;;;;;;;7.93;5.72;;;;;;;7.69;77.46;100320.59;1088543;39;20610;-76
2021/10/15 00:41:48;;;;;;;9.73;6.30;;;;;;;7.68;77.52;100319.78;1088627;46;20041;-75
2021/10/15 00:42:49;;;;;;;10.02;5.82;;;;;;;7.67;77.38;100318.06;1087728;54;20061;-75
2021/10/15 00:44:08;;;;;;;8.65;6.35;;;;;;;7.64;77.60;100316.50;1092296;39;20957;-75
2021/10/15 00:45:10;;;;;;;10.48;6.22;;;;;;;7.62;77.82;100318.44;1088914;46;20034;-76
2021/10/15 00:46:14;;;;;;;10.07;5.82;;;;;;;7.66;77.59;100316.38;1090167;39;20575;-76
2021/10/15 00:47:15;;;;;;;8.52;5.55;;;;;;;7.61;77.54;100314.06;1087901;54;20068;-75
2021/10/15 00:48:20;;;;;;;8.38;5.82;;;;;;;7.57;77.60;100309.09;1087923;54;20027;-75
2021/10/15 00:49:21;;;;;;;9.43;5.75;;;;;;;7.58;77.59;100308.16;1087917;54;20772;-75
2021/10/15 00:50:25;;;;;;;9.52;6.47;;;;;;;7.57;77.57;100306.44;1088209;46;20030;-75
2021/10/15 00:51:27;;;;;;;10.35;6.50;;;;;;;7.61;77.54;100310.53;1088022;54;20040;-76
2021/10/15 00:52:34;;;;;;;9.65;6.18;;;;;;;7.61;77.34;100314.06;1087878;54;20030;-76
2021/10/15 00:53:36;;;;;;;10.35;5.72;;;;;;;7.69;77.11;100309.97;1087896;54;20031;-75
2021/10/15 00:54:40;;;;;;;8.93;5.78;;;;;;;7.67;77.24;100309.22;1087879;54;20038;-76
2021/10/15 00:55:43;;;;;;;8.65;5.78;;;;;;;7.70;77.09;100304.50;1087988;54;20035;-76
2021/10/15 00:56:47;;;;;;;9.27;5.35;;;;;;;7.69;77.09;100305.50;1087956;54;20030;-75
2021/10/15 00:57:49;;;;;;;8.43;5.57;;;;;;;7.71;76.94;100308.03;1088507;39;20664;-76
2021/10/15 00:58:53;;;;;;;7.78;5.20;;;;;;;7.73;76.93;100304.28;1087793;54;20034;-75
2021/10/15 00:59:58;;;;;;;9.73;5.18;;;;;;;7.74;77.07;100302.47;1087927;54;20037;-75
2021/10/15 01:01:00;;;;;;;8.25;5.00;;;;;;;7.73;76.87;100296.28;1087942;46;20031;-76
2021/10/15 01:02:04;;;;;;;8.73;5.10;;;;;;;7.72;77.22;100299.91;1087573;54;20764;-76
2021/10/15 01:03:05;;;;;;;10.35;5.60;;;;;;;7.68;77.31;100294.97;1087941;54;20022;-75
2021/10/15 01:04:09;;;;;;;9.32;5.88;;;;;;;7.60;77.36;100295.56;1087960;54;20143;-76
2021/10/15 01:05:11;;;;;;;8.05;5.50;;;;;;;7.63;77.37;100288.19;1087934;54;20034;-75
2021/10/15 01:06:16;;;;;;;8.77;5.35;;;;;;;7.63;77.28;100282.88;1087934;54;20039;-75
2021/10/15 01:07:17;;;;;;;8.07;4.95;;;;;;;7.65;77.32;100285.41;1087865;54;20035;-75
2021/10/15 01:08:24;;;;;;;6.50;4.63;;;;;;;7.64;77.38;100283.72;1087985;54;20038;-76
2021/10/15 01:09:26;;;;;;;9.40;6.05;;;;;;;7.58;77.42;100279.72;1088330;46;20045;-75
2021/10/15 01:10:30;;;;;;;8.02;5.18;;;;;;;7.60;77.77;100280.44;1089593;39;20680;-75
2021/10/15 01:11:32;;;;;;;8.98;5.22;;;;;;;7.60;77.58;100283.09;1089058;46;20034;-76
2021/10/15 01:12:37;;;;;;;8.43;4.75;;;;;;;7.60;77.44;100285.75;1087747;54;20804;-75
2021/10/15 01:13:40;;;;;;;8.00;5.05;;;;;;;7.61;77.46;100284.81;1089574;46;20034;-74
2021/10/15 01:14:44;;;;;;;7.55;5.13;;;;;;;7.62;77.62;100283.84;1087953;54;20034;-75
2021/10/15 01:15:45;;;;;;;8.88;5.05;;;;;;;7.60;77.50;100280.44;1087804;54;20035;-75
2021/10/15 01:16:50;;;;;;;9.35;5.05;;;;;;;7.62;77.33;100272.34;1089041;46;20081;-75
2021/10/15 01:17:53;;;;;;;7.82;5.10;;;;;;;7.59;77.50;100268.09;1089189;46;20022;-75
2021/10/15 01:18:59;;;;;;;8.90;4.60;;;;;;;7.57;77.14;100272.69;1087960;54;20030;-75
2021/10/15 01:20:07;;;;;;;6.90;4.50;;;;;;;7.56;77.10;100270.16;1087985;54;20042;-76
2021/10/15 01:21:10;;;;;;;7.75;4.43;;;;;;;7.56;77.33;100264.84;1087830;54;20045;-75
2021/10/15 01:22:15;;;;;;;6.10;4.30;;;;;;;7.56;77.14;100273.66;1088123;46;20030;-75
2021/10/15 01:23:17;;;;;;;7.18;4.50;;;;;;;7.54;77.41;100274.75;1087929;54;20062;-75
2021/10/15 01:24:22;;;;;;;7.25;4.32;;;;;;;7.54;77.22;100269.44;1087970;54;20034;-75
2021/10/15 01:25:27;;;;;;;6.88;3.70;;;;;;;7.56;77.18;100267.50;1087948;54;20053;-75
2021/10/15 01:26:31;;;;;;;7.30;4.03;;;;;;;7.54;77.09;100264.09;1087852;54;20034;-74
2021/10/15 01:27:32;;;;;;;7.05;4.22;;;;;;;7.53;77.10;100262.41;1087852;54;20030;-75
2021/10/15 01:28:37;;;;;;;7.90;4.50;;;;;;;7.54;76.92;100264.97;1087932;54;20038;-75
2021/10/15 01:29:39;;;;;;;7.13;4.40;;;;;;;7.52;76.87;100260.72;1087852;54;20038;-76
2021/10/15 01:30:43;;;;;;;6.78;4.10;;;;;;;7.53;77.02;100265.06;1087884;54;20919;-75
2021/10/15 01:31:45;;;;;;;7.05;4.35;;;;;;;7.51;77.02;100251.91;1087889;46;20045;-75
2021/10/15 01:32:49;;;;;;;7.35;3.65;;;;;;;7.50;76.85;100258.19;1087986;46;20045;-75
2021/10/15 01:33:51;;;;;;;8.75;4.78;;;;;;;7.52;77.13;100260.72;1087967;54;20014;-74
2021/10/15 01:34:55;;;;;;;7.10;4.07;;;;;;;7.53;77.15;100257.94;1087944;54;20030;-74
2021/10/15 01:35:59;;;;;;;6.72;4.32;;;;;;;7.47;76.83;100253.94;1087920;54;20045;-75
2021/10/15 01:37:05;;;;;;;7.10;4.20;;;;;;;7.42;76.91;100264.09;1088520;39;20715;-75
2021/10/15 01:38:08;;;;;;;7.15;4.22;;;;;;;7.41;77.23;100256.25;1087911;54;20038;-75
2021/10/15 01:39:12;;;;;;;6.45;4.10;;;;;;;7.41;77.02;100254.44;1087733;54;20038;-75
2021/10/15 01:40:13;;;;;;;8.77;5.05;;;;;;;7.30;77.26;100257.06;1087933;54;20030;-75
2021/10/15 01:41:17;;;;;;;7.95;5.32;;;;;;;7.30;77.11;100254.41;1090721;39;20674;-75
2021/10/15 01:43:38;;;;;;;7.95;4.85;;;;;;;7.23;77.46;100245.19;1087917;54;20018;-75
2021/10/15 01:44:39;;;;;;;7.72;5.05;;;;;;;7.22;77.71;100256.81;1087877;54;20041;-76
2021/10/15 01:45:43;;;;;;;7.25;4.80;;;;;;;7.18;77.60;100250.88;1087847;54;20031;-74
2021/10/15 01:46:45;;;;;;;8.00;5.15;;;;;;;7.15;77.74;100254.63;1087953;54;20019;-75
2021/10/15 01:47:49;;;;;;;9.10;5.28;;;;;;;7.16;77.46;100252.81;1087803;54;20035;-75
2021/10/15 01:48:50;;;;;;;10.00;4.82;;;;;;;7.11;77.65;100254.97;1088021;47;20045;-75
2021/10/15 01:49:55;;;;;;;9.38;5.45;;;;;;;7.10;77.71;100261.25;1087901;54;20038;-75
2021/10/15 01:50:59;;;;;;;8.25;5.28;;;;;;;7.04;77.70;100246.59;1087892;54;20030;-75
2021/10/15 01:52:03;;;;;;;9.68;5.70;;;;;;;7.00;78.02;100258.47;1087898;54;20034;-74
2021/10/15 01:53:05;;;;;;;9.43;5.80;;;;;;;6.99;77.97;100254.94;1087887;54;20049;-75
2021/10/15 01:54:09;;;;;;;8.63;5.75;;;;;;;6.97;77.93;100246.25;1087802;54;20035;-75
2021/10/15 01:55:11;;;;;;;8.10;5.47;;;;;;;6.99;78.05;100254.94;1087887;54;20042;-75
2021/10/15 01:56:15;;;;;;;9.90;6.18;;;;;;;6.90;78.30;100247.66;1087873;54;20034;-74
2021/10/15 01:57:17;;;;;;;8.32;5.85;;;;;;;6.86;78.42;100246.22;1087819;54;20705;-76
2021/10/15 01:58:21;;;;;;;9.32;5.47;;;;;;;6.87;78.08;100245.25;1087881;54;20035;-75
2021/10/15 01:59:22;;;;;;;9.13;6.35;;;;;;;6.83;78.50;100243.78;1087703;54;20069;-75
2021/10/15 02:00:26;;;;;;;8.25;5.95;;;;;;;6.82;78.41;100250.06;1087830;47;20064;-75
2021/10/15 02:01:28;;;;;;;8.57;6.10;;;;;;;6.83;78.60;100249.09;1087885;54;20037;-75
2021/10/15 02:02:32;;;;;;;10.05;5.45;;;;;;;6.82;78.03;100244.75;1087559;54;20053;-75
2021/10/15 02:03:33;;;;;;;10.48;5.40;;;;;;;6.79;78.24;100243.16;1088824;46;20034;-75
2021/10/15 02:04:38;;;;;;;10.68;5.47;;;;;;;6.83;78.40;100244.66;1087780;54;20034;-73
2021/10/15 02:05:39;;;;;;;7.03;4.70;;;;;;;6.85;78.36;100244.50;1087842;54;20038;-76
2021/10/15 02:06:46;;;;;;;7.95;5.40;;;;;;;6.81;78.19;100245.69;1087835;54;20031;-75
2021/10/15 02:07:48;;;;;;;8.95;5.28;;;;;;;6.83;78.07;100235.81;1088166;46;20057;-75
2021/10/15 02:08:53;;;;;;;9.48;5.25;;;;;;;6.81;77.97;100238.59;1088932;46;20081;-75
2021/10/15 02:09:54;;;;;;;11.55;4.95;;;;;;;6.76;78.05;100234.59;1087765;54;20034;-75
2021/10/15 02:10:59;;;;;;;8.45;5.15;;;;;;;6.71;77.91;100234.94;1087808;54;20042;-75
2021/10/15 02:12:02;;;;;;;8.60;5.15;;;;;;;6.70;78.17;100234.09;1087626;54;20030;-75
2021/10/15 02:13:07;;;;;;;7.78;4.53;;;;;;;6.72;77.90;100232.16;1087864;54;20023;-75
2021/10/15 02:14:10;;;;;;;8.27;5.38;;;;;;;6.65;78.13;100236.22;1087788;54;20851;-75
2021/10/15 02:15:15;;;;;;;8.15;4.88;;;;;;;6.66;77.83;100234.44;1087614;54;20768;-75
2021/10/15 02:16:16;;;;;;;14.48;6.72;;;;;;;6.54;78.37;100233.53;1087745;54;20044;-75
2021/10/15 02:17:20;;;;;;;10.32;6.80;;;;;;;6.46;78.46;100238.56;1087763;54;20036;-75
2021/10/15 02:18:23;;;;;;;10.98;6.75;;;;;;;6.43;78.73;100236.13;1087881;54;20034;-75
2021/10/15 02:19:27;;;;;;;9.18;6.32;;;;;;;6.34;78.90;100230.53;1087858;54;20037;-75
2021/10/15 02:20:29;;;;;;;11.38;7.18;;;;;;;6.33;78.93;100239.47;1087740;54;20030;-75
2021/10/15 02:21:33;;;;;;;19.70;7.28;;;;;;;6.21;79.19;100232.41;1087768;54;20030;-75
2021/10/15 02:22:38;;;;;;;21.27;7.70;;;;;;;6.14;79.48;100232.00;1087679;54;20710;-76
2021/10/15 02:23:43;;;;;;;24.48;7.22;;;;;;;6.12;79.63;100238.38;1087844;54;20031;-74
2021/10/15 02:24:44;;;;;;;20.30;7.82;;;;;;;6.06;79.95;100219.28;1087843;54;20815;-75
2021/10/15 02:25:49;;;;;;;14.43;7.93;;;;;;;6.02;79.99;100230.22;1087822;54;20030;-75
2021/10/15 02:26:51;;;;;;;14.55;7.03;;;;;;;5.99;80.12;100226.00;1087768;54;20034;-75
2021/10/15 02:27:55;;;;;;;10.45;7.10;;;;;;;6.02;79.95;100225.78;1087814;54;20086;-75
2021/10/15 02:28:56;;;;;;;13.93;7.20;;;;;;;6.02;80.20;100224.91;1087838;54;20030;-75
2021/10/15 02:30:00;;;;;;;21.25;8.35;;;;;;;6.01;80.24;100221.44;1087858;54;20038;-75
2021/10/15 02:31:05;;;;;;;15.68;7.47;;;;;;;6.03;80.15;100219.53;1087712;54;20034;-75
2021/10/15 02:32:07;;;;;;;13.95;7.78;;;;;;;6.04;80.17;100223.88;1088449;46;20130;-75
2021/10/15 02:33:11;;;;;;;12.15;7.93;;;;;;;6.06;79.88;100213.13;1088506;46;20030;-75
2021/10/15 02:34:12;;;;;;;13.45;8.10;;;;;;;6.05;79.94;100222.88;1087798;54;20031;-75
2021/10/15 02:35:18;;;;;;;13.75;8.82;;;;;;;6.08;80.11;100230.63;1087873;54;20034;-75
2021/10/15 02:36:20;;;;;;;19.45;9.38;;;;;;;6.04;79.85;100215.91;1087802;54;20037;-74
2021/10/15 02:37:24;;;;;;;21.00;10.45;;;;;;;6.02;80.05;100217.81;1087645;54;20053;-75
2021/10/15 02:38:31;;;;;;;16.45;9.80;;;;;;;6.05;80.09;100216.75;1087750;54;20045;-75
2021/10/15 02:39:32;;;;;;;18.42;10.65;;;;;;;6.02;80.24;100212.50;1087769;54;20038;-75
2021/10/15 02:40:36;;;;;;;14.88;8.90;;;;;;;6.04;80.21;100215.03;1087799;54;20030;-75
2021/10/15 02:41:38;;;;;;;19.35;11.00;;;;;;;6.01;80.00;100216.13;1087810;54;20027;-75
2021/10/15 02:42:43;;;;;;;18.45;10.57;;;;;;;6.02;80.28;100206.34;1087660;54;20030;-75
2021/10/15 02:43:44;;;;;;;17.35;10.68;;;;;;;5.97;80.17;100209.28;1087709;54;20076;-74
2021/10/15 02:44:48;;;;;;;20.20;11.63;;;;;;;5.98;80.30;100210.16;1087888;54;20035;-75
2021/10/15 02:45:51;;;;;;;18.35;9.82;;;;;;;6.00;80.22;100205.63;1087844;54;20034;-75
2021/10/15 02:46:55;;;;;;;20.80;11.32;;;;;;;5.98;80.48;100203.03;1087794;54;20034;-75
2021/10/15 02:47:57;;;;;;;17.52;9.90;;;;;;;6.00;80.68;100209.13;1087717;54;20713;-75
2021/10/15 02:49:01;;;;;;;15.40;9.05;;;;;;;6.01;80.45;100196.69;1089412;39;20723;-76
2021/10/15 02:50:03;;;;;;;20.45;10.70;;;;;;;5.96;80.43;100206.75;1087808;54;20057;-75
2021/10/15 02:51:07;;;;;;;17.83;10.05;;;;;;;5.96;80.38;100202.28;1087787;54;20026;-75
2021/10/15 02:52:09;;;;;;;15.20;8.60;;;;;;;5.94;80.20;100199.75;1088025;39;20724;-76
2021/10/15 02:53:13;;;;;;;17.27;9.18;;;;;;;5.90;80.51;100202.75;1087812;54;20030;-75
2021/10/15 02:54:17;;;;;;;14.73;8.93;;;;;;;5.93;80.47;100202.53;1087740;54;20030;-75
2021/10/15 02:55:21;;;;;;;13.57;8.07;;;;;;;5.96;80.39;100202.28;1087802;54;20375;-75
2021/10/15 02:56:23;;;;;;;13.70;7.75;;;;;;;6.01;80.34;100202.84;1088067;46;20780;-74
2021/10/15 02:57:27;;;;;;;14.45;8.40;;;;;;;6.01;80.35;100196.69;1087730;54;20710;-75
2021/10/15 02:58:28;;;;;;;12.63;7.70;;;;;;;6.03;80.24;100192.13;1087764;54;20030;-75
2021/10/15 02:59:33;;;;;;;12.23;7.43;;;;;;;6.03;80.16;100198.28;1087706;54;20037;-74
2021/10/15 03:00:34;;;;;;;13.48;8.23;;;;;;;6.06;80.22;100192.72;1087653;54;20069;-75
2021/10/15 03:01:38;;;;;;;13.30;7.30;;;;;;;6.10;80.13;100196.00;1087725;54;20038;-75
2021/10/15 03:02:40;;;;;;;14.65;7.68;;;;;;;6.08;79.92;100190.81;1087595;54;20060;-74
2021/10/15 03:03:44;;;;;;;13.75;8.30;;;;;;;6.06;80.27;100190.09;1087712;54;20042;-75
2021/10/15 03:04:46;;;;;;;12.18;7.68;;;;;;;6.07;80.16;100189.13;1087647;54;20030;-75
2021/10/15 03:05:50;;;;;;;12.93;7.55;;;;;;;6.09;80.11;100189.88;1087768;54;20037;-75
2021/10/15 03:06:52;;;;;;;11.10;6.60;;;;;;;6.12;80.10;100190.59;1087729;54;20037;-74
2021/10/15 03:07:56;;;;;;;11.48;6.53;;;;;;;6.12;79.87;100186.13;1087794;54;20041;-75
2021/10/15 03:08:58;;;;;;;10.05;6.10;;;;;;;6.13;79.87;100184.34;1087867;54;20030;-74
2021/10/15 03:10:05;;;;;;;13.98;8.55;;;;;;;6.12;80.08;100187.97;1087795;47;20831;-75
2021/10/15 03:11:07;;;;;;;16.80;8.20;;;;;;;6.08;79.96;100177.56;1087776;54;20098;-75
2021/10/15 03:12:11;;;;;;;11.45;6.70;;;;;;;6.08;80.03;100180.22;1087651;54;20030;-75
2021/10/15 03:13:13;;;;;;;14.50;7.78;;;;;;;6.06;79.97;100178.63;1087777;54;20038;-75
2021/10/15 03:14:17;;;;;;;12.48;7.22;;;;;;;6.04;79.87;100186.72;1088971;39;20581;-74
2021/10/15 03:15:18;;;;;;;11.45;7.38;;;;;;;6.04;79.62;100184.06;1087648;54;20041;-75
2021/10/15 03:16:23;;;;;;;11.32;6.90;;;;;;;6.03;79.82;100187.69;1089280;39;20932;-75
2021/10/15 03:17:24;;;;;;;11.07;7.00;;;;;;;6.01;79.95;100189.59;1087569;54;20038;-75
2021/10/15 03:18:29;;;;;;;11.68;7.53;;;;;;;6.01;79.92;100194.03;1087701;54;20031;-75
2021/10/15 03:19:30;;;;;;;15.05;8.18;;;;;;;5.99;79.91;100191.50;1087692;54;20038;-74
2021/10/15 03:20:35;;;;;;;14.60;8.05;;;;;;;5.98;79.73;100188.94;1087710;54;20031;-74
2021/10/15 03:21:36;;;;;;;13.15;7.28;;;;;;;5.94;79.92;100188.31;1087589;54;20042;-75
2021/10/15 03:22:41;;;;;;;31.50;7.63;;;;;;;5.92;79.80;100190.22;1087625;54;20030;-75
2021/10/15 03:23:42;;;;;;;20.45;8.60;;;;;;;5.82;80.29;100183.88;1087722;54;20054;-74
2021/10/15 03:24:46;;;;;;;11.98;7.88;;;;;;;5.83;80.38;100185.59;1087687;54;20034;-75
2021/10/15 03:25:50;;;;;;;17.02;7.53;;;;;;;5.83;80.48;100188.25;1087738;54;20041;-75
2021/10/15 03:26:55;;;;;;;19.60;7.57;;;;;;;5.82;80.34;100184.72;1087507;54;20026;-75
2021/10/15 03:27:56;;;;;;;10.20;6.55;;;;;;;5.83;80.13;100183.75;1087687;54;20061;-74
2021/10/15 03:29:00;;;;;;;12.48;6.88;;;;;;;5.85;80.30;100186.31;1091060;39;20677;-75
2021/10/15 03:30:04;;;;;;;14.25;7.93;;;;;;;5.82;80.49;100184.72;1087703;54;20026;-75
2021/10/15 03:31:08;;;;;;;14.95;7.82;;;;;;;5.83;80.57;100182.94;1087704;54;20030;-74
2021/10/15 03:32:09;;;;;;;12.93;6.97;;;;;;;5.84;80.38;100187.28;1087613;54;20053;-74
2021/10/15 03:33:13;;;;;;;12.77;7.30;;;;;;;5.86;80.52;100180.91;1087768;54;20034;-77
2021/10/15 03:34:15;;;;;;;13.57;7.30;;;;;;;5.85;80.50;100188.97;1094975;39;20625;-74
2021/10/15 03:35:19;;;;;;;11.32;7.20;;;;;;;5.85;80.52;100186.31;1087772;54;20026;-75
2021/10/15 03:36:23;;;;;;;17.88;7.22;;;;;;;5.77;80.68;100190.34;1087818;54;20031;-74
2021/10/15 03:37:25;;;;;;;12.90;6.97;;;;;;;5.76;80.79;100180.69;1087638;54;20054;-74
2021/10/15 03:38:29;;;;;;;14.40;9.02;;;;;;;5.74;80.78;100182.63;1087804;46;20423;-75
2021/10/15 03:39:30;;;;;;;16.45;7.55;;;;;;;5.68;80.85;100185.72;1087715;54;20038;-75
2021/10/15 03:40:36;;;;;;;10.10;6.95;;;;;;;5.72;80.64;100183.69;1087698;54;20065;-75
2021/10/15 03:41:40;;;;;;;14.35;7.07;;;;;;;5.71;80.90;100182.84;1087647;54;20030;-74
2021/10/15 03:42:44;;;;;;;11.43;7.75;;;;;;;5.71;80.88;100185.50;1087660;54;20031;-74
2021/10/15 03:43:46;;;;;;;11.52;7.35;;;;;;;5.70;80.69;100180.31;1087474;54;20039;-74
2021/10/15 03:44:50;;;;;;;8.98;6.30;;;;;;;5.69;80.85;100175.97;1087713;54;20038;-75
2021/10/15 03:45:51;;;;;;;10.63;7.03;;;;;;;5.65;81.30;100178.00;1087683;54;20038;-75
2021/10/15 03:46:55;;;;;;;11.25;6.85;;;;;;;5.67;81.34;100177.88;1087658;54;20030;-74
2021/10/15 03:47:57;;;;;;;10.90;6.20;;;;;;;5.68;80.95;100177.75;1087692;54;20035;-74
2021/10/15 03:49:01;;;;;;;25.00;7.43;;;;;;;5.65;81.04;100182.44;1087633;54;20030;-74
2021/10/15 03:50:05;;;;;;;16.02;6.47;;;;;;;5.62;81.10;100180.84;1087697;54;20102;-75
2021/10/15 03:51:10;;;;;;;13.02;6.38;;;;;;;5.61;80.97;100176.50;1087596;54;20037;-74
2021/10/15 03:52:12;;;;;;;28.90;6.80;;;;;;;5.62;81.07;100179.03;1087565;54;20855;-74
2021/10/15 03:53:16;;;;;;;15.63;5.85;;;;;;;5.63;81.22;100187.84;1087717;54;20038;-75
2021/10/15 03:54:17;;;;;;;9.98;5.60;;;;;;;5.63;81.24;100190.50;1087664;54;20031;-75
2021/10/15 03:55:22;;;;;;;13.07;6.25;;;;;;;5.64;81.15;100178.94;1088499;46;20053;-75
2021/10/15 03:56:23;;;;;;;8.95;5.55;;;;;;;5.66;81.17;100190.31;1087683;54;20030;-75
2021/10/15 03:57:30;;;;;;;7.93;5.53;;;;;;;5.69;81.21;100184.75;1087678;47;20035;-74
2021/10/15 03:58:31;;;;;;;8.65;5.80;;;;;;;5.72;81.02;100183.69;1087292;54;20031;-75
2021/10/15 03:59:36;;;;;;;8.65;5.68;;;;;;;5.72;80.98;100181.91;1087642;54;20041;-75
2021/10/15 04:00:37;;;;;;;6.88;4.93;;;;;;;5.75;80.80;100179.03;1087554;54;20026;-75
2021/10/15 04:01:41;;;;;;;6.93;4.85;;;;;;;5.77;80.91;100178.91;1092533;39;20713;-75
2021/10/15 04:02:46;;;;;;;12.10;6.05;;;;;;;5.76;81.11;100177.22;1087590;54;20038;-74
2021/10/15 04:03:50;;;;;;;27.17;6.78;;;;;;;5.69;81.12;100179.44;1087625;54;20034;-74
2021/10/15 04:04:51;;;;;;;10.23;5.40;;;;;;;5.71;80.84;100187.31;1088610;46;20042;-74
2021/10/15 04:05:56;;;;;;;20.40;6.32;;;;;;;5.63;81.04;100180.72;1087630;54;20102;-75
2021/10/15 04:06:58;;;;;;;10.30;5.25;;;;;;;5.62;81.09;100184.34;1091774;31;20744;-75
2021/10/15 04:08:02;;;;;;;10.90;5.55;;;;;;;5.62;80.99;100175.56;1087672;54;20042;-74
2021/10/15 04:09:04;;;;;;;12.63;5.93;;;;;;;5.62;81.19;100178.19;1087705;54;20026;-75
2021/10/15 04:10:10;;;;;;;8.30;5.75;;;;;;;5.62;81.22;100178.19;1087681;54;20034;-74
2021/10/15 04:11:11;;;;;;;26.90;6.25;;;;;;;5.56;81.30;100179.47;1087547;54;20058;-74
2021/10/15 04:12:15;;;;;;;9.15;5.40;;;;;;;5.56;81.29;100178.66;1087375;54;20030;-74
2021/10/15 04:13:22;;;;;;;9.13;5.22;;;;;;;5.58;81.26;100176.72;1087461;54;20030;-74
2021/10/15 04:14:23;;;;;;;10.35;5.25;;;;;;;5.57;81.26;100172.41;1088443;46;20306;-74
2021/10/15 04:15:28;;;;;;;20.40;5.75;;;;;;;5.57;81.29;100180.34;1087692;54;20052;-74
2021/10/15 04:16:29;;;;;;;7.60;4.80;;;;;;;5.56;81.43;100171.53;1087668;54;20030;-75
2021/10/15 04:17:33;;;;;;;7.13;4.80;;;;;;;5.62;81.25;100175.56;1091472;39;20660;-75
2021/10/15 04:18:35;;;;;;;10.10;5.22;;;;;;;5.63;81.10;100174.59;1087661;54;20034;-74
2021/10/15 04:19:39;;;;;;;7.78;5.28;;;;;;;5.62;81.29;100175.56;1087628;54;20034;-75
2021/10/15 04:20:41;;;;;;;9.20;5.55;;;;;;;5.62;81.32;100180.84;1089100;39;20311;-74
2021/10/15 04:21:45;;;;;;;7.78;5.32;;;;;;;5.67;81.34;100175.22;1087707;39;21167;-75
2021/10/15 04:22:47;;;;;;;7.43;5.15;;;;;;;5.69;81.37;100174.16;1087623;47;20038;-75
2021/10/15 04:23:51;;;;;;;6.78;4.65;;;;;;;5.72;81.34;100173.06;1087594;54;20038;-75
2021/10/15 04:24:53;;;;;;;7.75;4.80;;;;;;;5.72;81.10;100168.63;1087571;54;20087;-75
2021/10/15 04:25:57;;;;;;;7.22;5.38;;;;;;;5.70;81.09;100167.88;1087649;54;20037;-74
2021/10/15 04:26:59;;;;;;;8.45;4.88;;;;;;;5.75;81.12;100165.78;1087642;54;20034;-74
2021/10/15 04:28:03;;;;;;;12.70;5.78;;;;;;;5.73;81.01;100166.81;1087537;54;20057;-75
2021/10/15 04:29:07;;;;;;;18.83;6.78;;;;;;;5.67;81.25;100156.66;1087631;47;20034;-74
2021/10/15 04:30:12;;;;;;;16.95;6.80;;;;;;;5.60;81.27;100158.88;1087647;54;20172;-75
2021/10/15 04:31:13;;;;;;;11.35;6.35;;;;;;;5.58;81.42;100152.84;1088543;39;20676;-75
2021/10/15 04:32:18;;;;;;;9.02;6.63;;;;;;;5.58;81.27;100166.09;1087537;54;20880;-74
2021/10/15 04:33:22;;;;;;;11.43;7.65;;;;;;;5.57;81.14;100161.78;1087562;54;20039;-74
2021/10/15 04:34:24;;;;;;;13.48;9.13;;;;;;;5.51;81.48;100155.13;1088299;39;20257;-74
2021/10/15 04:35:28;;;;;;;16.33;10.00;;;;;;;5.48;81.44;100157.97;1087597;54;20043;-75
2021/10/15 04:36:29;;;;;;;13.75;8.63;;;;;;;5.50;81.63;100155.19;1087606;54;20031;-76
2021/10/15 04:37:33;;;;;;;13.38;8.35;;;;;;;5.51;81.56;100159.56;1087576;54;20102;-75
2021/10/15 04:38:35;;;;;;;12.00;7.95;;;;;;;5.56;81.54;100157.44;1088920;39;20684;-75
2021/10/15 04:39:39;;;;;;;12.75;8.35;;;;;;;5.56;81.46;100157.44;1087633;54;20031;-75
2021/10/15 04:40:44;;;;;;;13.02;8.80;;;;;;;5.56;81.66;100149.47;1087549;54;20038;-75
2021/10/15 04:41:45;;;;;;;14.68;9.48;;;;;;;5.57;81.50;100159.13;1087625;54;20815;-76
2021/10/15 04:42:49;;;;;;;10.70;7.78;;;;;;;5.61;81.39;100161.44;1087560;54;20031;-75
2021/10/15 04:43:51;;;;;;;17.65;10.30;;;;;;;5.55;81.29;100155.75;1087579;39;20712;-76
2021/10/15 04:44:58;;;;;;;17.80;10.10;;;;;;;5.56;81.47;100160.09;1087442;54;20034;-75
2021/10/15 04:45:59;;;;;;;11.45;8.00;;;;;;;5.53;81.61;100160.28;1089849;39;20677;-75
2021/10/15 04:47:03;;;;;;;13.77;9.38;;;;;;;5.58;81.40;100155.50;1087638;54;20801;-75
2021/10/15 04:48:05;;;;;;;13.52;8.35;;;;;;;5.58;81.42;100160.81;1087546;54;20030;-75
2021/10/15 04:49:09;;;;;;;15.07;9.80;;;;;;;5.56;81.31;100155.63;1087777;47;20038;-77
2021/10/15 04:50:13;;;;;;;14.43;9.85;;;;;;;5.56;81.30;100152.13;1087576;54;20823;-75
2021/10/15 04:51:15;;;;;;;19.73;12.75;;;;;;;5.56;81.52;100157.44;1087588;54;20030;-75
2021/10/15 04:52:19;;;;;;;14.40;9.68;;;;;;;5.59;81.15;100151.88;1088111;47;20772;-75
2021/10/15 04:53:23;;;;;;;14.30;9.15;;;;;;;5.59;81.13;100157.19;1087568;54;20035;-75
2021/10/15 04:54:24;;;;;;;12.60;8.55;;;;;;;5.53;81.13;100155.00;1087569;54;20041;-75
2021/10/15 04:55:29;;;;;;;13.52;7.90;;;;;;;5.55;81.18;100155.75;1088743;47;20035;-75
2021/10/15 04:56:30;;;;;;;11.43;7.10;;;;;;;5.55;81.13;100147.78;1087573;54;20819;-75
2021/10/15 04:57:35;;;;;;;11.65;7.40;;;;;;;5.51;81.27;100144.50;1087511;54;20034;-75